Time;durP1;ratioP1;P1;durP2;ratioP2;P2;SDS_P1;SDS_P2;PMS_P1;PMS_P2;Temp;Humidity;BMP_temperature;BMP_pressure;BME280_temperature;BME280_humidity;BME280_pressure;Samples;Min_cycle;Max_cycle;Signal;HPM_P1;HPM_P2
2021/05/05 00:01:15;;;;;;;3.00;1.42;;;;;;;18.35;31.50;99880.09;4174691;28;20040;-48
2021/05/05 00:03:16;;;;;;;4.20;1.20;;;;;;;18.39;31.53;99885.88;4178492;28;20041;-47
2021/05/05 00:05:16;;;;;;;3.53;1.20;;;;;;;18.25;31.58;99899.59;4171932;28;20029;-49
2021/05/05 00:07:17;;;;;;;5.55;1.38;;;;;;;18.27;31.69;99899.31;4180488;28;20039;-47
2021/05/05 00:09:17;;;;;;;3.33;1.08;;;;;;;18.22;31.73;99888.31;4176063;28;20483;-49
2021/05/05 00:11:18;;;;;;;4.50;1.45;;;;;;;18.17;31.89;99895.56;4167492;28;20041;-47
2021/05/05 00:13:19;;;;;;;4.95;1.27;;;;;;;18.18;31.91;99904.66;4177371;28;20509;-48
2021/05/05 00:15:24;;;;;;;3.45;1.08;;;;;;;18.16;31.74;99898.63;4179636;28;20581;-47
2021/05/05 00:17:24;;;;;;;2.38;1.05;;;;;;;18.16;32.01;99896.66;4177907;28;20028;-49
2021/05/05 00:19:25;;;;;;;5.20;1.92;;;;;;;18.14;31.89;99896.16;4178237;28;20087;-48
2021/05/05 00:21:25;;;;;;;4.03;1.33;;;;;;;18.18;31.92;99883.34;4171964;28;20040;-49
2021/05/05 00:23:26;;;;;;;3.20;1.23;;;;;;;18.22;32.05;99891.88;4173052;28;20083;-51
2021/05/05 00:25:27;;;;;;;3.22;1.27;;;;;;;18.07;31.99;99883.78;4187657;28;20040;-47
2021/05/05 00:27:27;;;;;;;3.42;1.55;;;;;;;18.07;32.02;99889.31;4182421;28;20033;-48
2021/05/05 00:29:27;;;;;;;2.22;1.05;;;;;;;18.17;31.87;99892.78;4177183;28;20390;-51
2021/05/05 00:31:28;;;;;;;3.80;1.48;;;;;;;18.13;31.90;99885.38;4180368;28;20040;-48
2021/05/05 00:33:29;;;;;;;3.53;1.38;;;;;;;17.99;31.80;99874.19;4172951;28;20455;-46
2021/05/05 00:35:29;;;;;;;2.17;0.93;;;;;;;18.00;31.98;99886.94;4175521;28;20033;-45
2021/05/05 00:37:30;;;;;;;2.70;1.20;;;;;;;17.97;31.99;99879.22;4177010;28;20053;-46
2021/05/05 00:39:30;;;;;;;4.70;1.10;;;;;;;17.91;32.19;99885.94;4174280;28;20036;-48
2021/05/05 00:41:31;;;;;;;4.63;1.50;;;;;;;17.97;32.16;99879.22;4185384;28;20495;-46
2021/05/05 00:43:32;;;;;;;3.00;1.45;;;;;;;18.02;32.06;99892.16;4184630;28;20060;-49
2021/05/05 00:45:34;;;;;;;2.58;0.95;;;;;;;17.97;31.83;99881.97;4176195;28;20045;-47
2021/05/05 00:47:34;;;;;;;4.50;1.23;;;;;;;17.99;32.08;99882.50;4176839;28;20041;-48
2021/05/05 00:49:35;;;;;;;2.17;1.15;;;;;;;17.87;31.99;99868.25;4173727;28;20044;-48
2021/05/05 00:51:36;;;;;;;3.65;1.25;;;;;;;17.96;32.03;99874.78;4181045;28;20032;-49
2021/05/05 00:53:39;;;;;;;5.05;1.15;;;;;;;17.96;32.14;99878.38;4184396;28;20083;-47
2021/05/05 00:55:40;;;;;;;3.80;1.35;;;;;;;17.93;32.05;99884.50;4177614;28;20529;-48
2021/05/05 00:57:41;;;;;;;2.60;1.15;;;;;;;17.91;32.11;99878.44;4172615;28;20072;-46
2021/05/05 00:59:42;;;;;;;4.20;1.70;;;;;;;17.89;32.05;99872.38;4174475;28;20029;-48
2021/05/05 01:01:44;;;;;;;4.70;1.40;;;;;;;17.82;32.19;99864.41;4175868;28;20388;-49
2021/05/05 01:03:44;;;;;;;2.33;1.02;;;;;;;17.92;32.04;99865.41;4172346;28;20029;-51
2021/05/05 01:05:45;;;;;;;3.75;0.82;;;;;;;17.89;32.22;99875.16;4175019;28;20102;-48
2021/05/05 01:07:46;;;;;;;2.08;1.10;;;;;;;17.78;32.18;99874.47;4178456;28;20021;-47
2021/05/05 01:09:47;;;;;;;5.05;1.23;;;;;;;17.76;32.22;99868.38;4179285;28;20271;-49
2021/05/05 01:11:47;;;;;;;4.72;1.73;;;;;;;17.72;32.01;99860.97;4170492;28;20029;-49
2021/05/05 01:13:48;;;;;;;4.68;1.23;;;;;;;17.77;32.04;99875.56;4186956;28;20041;-47
2021/05/05 01:15:48;;;;;;;2.65;1.38;;;;;;;17.76;32.28;99879.44;4181078;28;20036;-50
2021/05/05 01:17:49;;;;;;;4.07;1.60;;;;;;;17.77;32.18;99875.56;4171567;28;20087;-47
2021/05/05 01:19:49;;;;;;;3.40;1.42;;;;;;;17.72;32.27;99883.94;4173715;28;20029;-49
2021/05/05 01:21:50;;;;;;;2.38;1.17;;;;;;;17.65;32.30;99877.94;4173139;28;20108;-47
2021/05/05 01:23:50;;;;;;;2.97;1.65;;;;;;;17.75;32.11;99896.34;4183255;28;20043;-47
2021/05/05 01:25:51;;;;;;;2.83;1.50;;;;;;;17.68;32.25;99890.34;4181480;28;20025;-50
2021/05/05 01:27:52;;;;;;;4.20;1.45;;;;;;;17.66;32.16;99887.88;4173349;28;20175;-49
2021/05/05 01:29:52;;;;;;;2.60;1.45;;;;;;;17.66;32.19;99873.19;4176300;28;20438;-48
2021/05/05 01:31:53;;;;;;;3.30;1.30;;;;;;;17.62;32.23;99872.97;4173692;28;20079;-48
2021/05/05 01:33:55;;;;;;;2.50;1.40;;;;;;;17.58;32.51;99866.38;4174550;28;20029;-46
2021/05/05 01:35:55;;;;;;;2.88;1.40;;;;;;;17.60;32.26;99858.63;4164857;28;20904;-48
2021/05/05 01:37:55;;;;;;;3.17;1.25;;;;;;;17.60;32.30;99869.69;4179060;28;20037;-48
2021/05/05 01:39:56;;;;;;;2.67;1.67;;;;;;;17.57;32.32;99859.22;4174584;28;20523;-46
2021/05/05 01:41:57;;;;;;;4.07;1.25;;;;;;;17.58;32.42;99869.13;4170103;28;20105;-48
2021/05/05 01:43:58;;;;;;;5.82;1.42;;;;;;;17.56;32.40;99863.09;4171382;28;20032;-48
2021/05/05 01:45:59;;;;;;;4.13;1.40;;;;;;;17.59;32.26;99870.81;4182467;28;20044;-49
2021/05/05 01:48:02;;;;;;;3.10;1.50;;;;;;;17.57;32.37;99865.56;4179459;28;20404;-49
2021/05/05 01:50:03;;;;;;;3.70;1.38;;;;;;;17.55;32.27;99856.75;4175636;28;20040;-47
2021/05/05 01:52:04;;;;;;;3.13;1.40;;;;;;;17.48;32.66;99863.72;4171482;28;20040;-46
2021/05/05 01:54:05;;;;;;;2.03;1.20;;;;;;;17.53;32.41;99874.75;4172501;28;20037;-47
2021/05/05 01:56:05;;;;;;;5.13;1.42;;;;;;;17.46;32.48;99864.81;4181835;28;20110;-50
2021/05/05 01:58:06;;;;;;;4.78;1.50;;;;;;;17.50;32.26;99865.06;4176635;28;20483;-48
2021/05/05 02:00:15;;;;;;;2.75;1.25;;;;;;;17.46;32.51;99864.81;4180423;28;20029;-51
2021/05/05 02:02:16;;;;;;;3.08;1.23;;;;;;;17.50;32.41;99862.31;4171611;28;20025;-48
2021/05/05 02:04:16;;;;;;;2.17;1.05;;;;;;;17.45;32.51;99857.63;4175411;28;20585;-46
2021/05/05 02:06:16;;;;;;;5.40;1.40;;;;;;;17.49;32.47;99865.34;4178726;28;20056;-49
2021/05/05 02:08:17;;;;;;;1.83;1.23;;;;;;;17.44;32.42;99861.53;4176213;28;20025;-47
2021/05/05 02:10:19;;;;;;;3.75;1.90;;;;;;;17.40;32.43;99871.53;4171696;28;20025;-48
2021/05/05 02:12:20;;;;;;;2.95;1.50;;;;;;;17.36;32.45;99870.44;4179133;28;21010;-49
2021/05/05 02:14:21;;;;;;;2.75;1.73;;;;;;;17.38;32.44;99864.63;4176679;28;20039;-49
2021/05/05 02:16:21;;;;;;;3.45;1.65;;;;;;;17.40;32.40;99868.75;4171509;28;20030;-47
2021/05/05 02:18:23;;;;;;;3.35;1.50;;;;;;;17.28;32.25;99848.97;4175677;28;20036;-49
2021/05/05 02:20:26;;;;;;;2.53;1.13;;;;;;;17.35;32.41;99866.06;4182673;28;20040;-51
2021/05/05 02:22:27;;;;;;;6.32;2.05;;;;;;;17.31;32.49;99866.94;4188280;28;20024;-47
2021/05/05 02:24:27;;;;;;;2.40;1.50;;;;;;;17.25;32.63;99864.19;4175371;28;20040;-47
2021/05/05 02:26:28;;;;;;;3.75;1.65;;;;;;;17.28;32.37;99865.56;4179951;28;20029;-47
2021/05/05 02:28:30;;;;;;;2.42;1.40;;;;;;;17.38;32.21;99876.53;4175443;28;20486;-48
2021/05/05 02:30:30;;;;;;;2.78;1.65;;;;;;;17.33;32.45;99876.56;4173103;28;20124;-45
2021/05/05 02:32:31;;;;;;;4.15;1.70;;;;;;;17.22;32.40;99859.25;4173985;28;20045;-48
2021/05/05 02:34:31;;;;;;;3.75;1.20;;;;;;;17.34;32.29;99878.22;4173403;28;20136;-50
2021/05/05 02:36:32;;;;;;;2.53;1.52;;;;;;;17.29;32.47;99870.81;4176022;28;20033;-50
2021/05/05 02:38:33;;;;;;;5.78;1.55;;;;;;;17.21;32.57;99876.13;4176835;28;20383;-48
2021/05/05 02:40:34;;;;;;;4.75;2.20;;;;;;;17.23;32.70;99869.22;4175264;28;20141;-47
2021/05/05 02:42:34;;;;;;;4.13;1.85;;;;;;;17.22;32.38;99869.50;4179077;28;20036;-48
2021/05/05 02:44:36;;;;;;;4.57;1.63;;;;;;;17.20;32.42;99869.78;4176386;28;20126;-48
2021/05/05 02:46:36;;;;;;;4.07;1.25;;;;;;;17.22;32.51;99875.03;4175919;28;20229;-51
2021/05/05 02:48:37;;;;;;;3.55;1.65;;;;;;;17.16;32.47;99873.44;4175475;28;20410;-50
2021/05/05 02:50:38;;;;;;;3.20;1.30;;;;;;;17.16;32.41;99871.47;4176871;28;20047;-47
2021/05/05 02:52:39;;;;;;;4.45;1.65;;;;;;;17.16;32.52;99867.91;4183179;28;20036;-48
2021/05/05 02:54:39;;;;;;;3.22;1.10;;;;;;;17.20;32.46;99882.81;4175426;28;20051;-50
2021/05/05 02:56:40;;;;;;;4.47;1.55;;;;;;;17.09;32.42;99866.28;4174153;28;20029;-48
2021/05/05 02:58:40;;;;;;;4.50;1.67;;;;;;;17.21;32.30;99873.38;4175241;28;20082;-46
2021/05/05 03:00:41;;;;;;;3.85;1.02;;;;;;;17.11;32.29;99874.31;4171395;28;20037;-47
2021/05/05 03:02:41;;;;;;;3.22;1.45;;;;;;;17.13;32.47;99882.31;4180463;28;20075;-49
2021/05/05 03:04:42;;;;;;;5.47;1.55;;;;;;;17.13;32.30;99871.25;4177284;28;20029;-49
2021/05/05 03:06:42;;;;;;;4.93;1.50;;;;;;;17.17;32.26;99873.13;4173609;28;20024;-50
2021/05/05 03:08:42;;;;;;;3.55;1.20;;;;;;;17.10;32.45;99884.53;4185600;28;20040;-48
2021/05/05 03:10:44;;;;;;;3.30;1.73;;;;;;;17.09;32.42;99893.13;4176178;28;20025;-49
2021/05/05 03:12:45;;;;;;;2.45;1.50;;;;;;;17.06;32.47;99889.00;4176659;28;20691;-46
2021/05/05 03:14:45;;;;;;;3.33;1.90;;;;;;;17.08;32.59;99878.47;4178241;28;20029;-46
2021/05/05 03:16:46;;;;;;;5.22;1.42;;;;;;;17.08;32.40;99884.00;4173726;28;20063;-48
2021/05/05 03:18:46;;;;;;;3.33;1.83;;;;;;;16.96;32.61;99878.06;4179397;28;20057;-49
2021/05/05 03:20:47;;;;;;;3.67;1.48;;;;;;;17.02;32.55;99870.50;4175251;28;20032;-48
2021/05/05 03:22:47;;;;;;;4.85;1.60;;;;;;;17.02;32.45;99876.88;4174568;28;20028;-47
2021/05/05 03:24:48;;;;;;;3.65;1.65;;;;;;;17.00;32.48;99876.34;4174418;28;21284;-48
2021/05/05 03:26:49;;;;;;;2.65;1.42;;;;;;;17.04;32.52;99882.94;4171918;28;20168;-48
2021/05/05 03:28:49;;;;;;;4.65;1.58;;;;;;;16.89;32.55;99872.03;4183166;28;20563;-48
2021/05/05 03:30:49;;;;;;;2.90;1.23;;;;;;;16.93;32.68;99896.03;4177227;28;20029;-50
2021/05/05 03:32:50;;;;;;;4.18;1.13;;;;;;;17.00;32.57;99892.09;4178883;28;21013;-52
2021/05/05 03:34:51;;;;;;;3.95;1.52;;;;;;;17.08;32.30;99891.47;4176241;28;20051;-50
2021/05/05 03:36:51;;;;;;;4.30;1.70;;;;;;;16.93;32.55;99886.91;4172380;28;20049;-51
2021/05/05 03:38:52;;;;;;;4.10;1.55;;;;;;;16.94;32.55;99891.31;4185299;28;20040;-47
2021/05/05 03:40:52;;;;;;;3.60;1.88;;;;;;;16.90;32.45;99893.84;4176088;28;20487;-52
2021/05/05 03:42:52;;;;;;;2.53;1.63;;;;;;;16.94;32.64;99894.06;4175212;28;20086;-47
2021/05/05 03:44:53;;;;;;;3.03;1.33;;;;;;;16.90;32.54;99901.31;4167741;28;20025;-49
2021/05/05 03:46:53;;;;;;;3.92;1.70;;;;;;;16.91;32.52;99886.38;4174407;28;20078;-52
2021/05/05 03:48:53;;;;;;;4.10;1.60;;;;;;;16.86;32.41;99900.25;4177141;28;20037;-47
2021/05/05 03:50:56;;;;;;;2.33;1.35;;;;;;;16.87;32.64;99896.38;4174059;28;20033;-50
2021/05/05 03:52:56;;;;;;;3.00;1.98;;;;;;;16.91;32.67;99889.13;4177184;28;20033;-48
2021/05/05 03:54:57;;;;;;;4.28;2.08;;;;;;;16.92;32.50;99891.59;4177268;28;20051;-52
2021/05/05 03:56:57;;;;;;;3.22;1.50;;;;;;;16.87;32.55;99890.84;4171441;28;20403;-47
2021/05/05 03:58:58;;;;;;;4.13;1.92;;;;;;;16.78;32.62;99887.88;4175305;28;20029;-51
2021/05/05 04:00:59;;;;;;;3.25;1.27;;;;;;;16.82;32.56;99894.47;4181615;28;20036;-47
2021/05/05 04:02:59;;;;;;;4.70;1.88;;;;;;;16.82;32.66;99893.63;4174708;28;20029;-50
2021/05/05 04:05:00;;;;;;;2.85;1.23;;;;;;;16.88;32.50;99887.78;4177061;28;20032;-49
2021/05/05 04:07:00;;;;;;;3.42;1.60;;;;;;;16.83;32.67;99890.56;4178376;28;20554;-50
2021/05/05 04:09:00;;;;;;;3.90;1.42;;;;;;;16.82;32.68;99890.84;4178063;28;20055;-50
2021/05/05 04:11:01;;;;;;;4.03;1.40;;;;;;;16.84;32.63;99895.00;4176349;28;20036;-47
2021/05/05 04:13:03;;;;;;;3.85;1.60;;;;;;;16.61;32.45;99870.84;4177676;28;20044;-50
2021/05/05 04:15:04;;;;;;;5.22;1.80;;;;;;;16.80;32.58;99904.16;4176290;28;20086;-48
2021/05/05 04:17:05;;;;;;;3.85;1.60;;;;;;;16.85;32.43;99904.09;4178640;28;20123;-46
2021/05/05 04:19:06;;;;;;;5.55;2.17;;;;;;;16.80;32.58;99901.38;4178335;28;20522;-47
2021/05/05 04:21:08;;;;;;;3.92;1.60;;;;;;;16.72;32.72;99900.88;4177145;28;20479;-50
2021/05/05 04:23:08;;;;;;;4.45;2.00;;;;;;;16.77;32.72;99907.50;4170305;28;20049;-51
2021/05/05 04:25:09;;;;;;;2.45;1.48;;;;;;;16.80;32.47;99896.69;4175397;28;20071;-47
2021/05/05 04:27:09;;;;;;;2.70;1.75;;;;;;;16.81;32.40;99886.47;4178010;28;20549;-47
2021/05/05 04:29:10;;;;;;;2.95;1.45;;;;;;;16.75;32.57;99905.84;4175856;28;20064;-47
2021/05/05 04:31:11;;;;;;;3.15;1.80;;;;;;;16.82;32.47;99896.38;4172854;28;20484;-52
2021/05/05 04:33:11;;;;;;;3.38;2.20;;;;;;;16.77;32.53;99901.97;4168684;28;20079;-52
2021/05/05 04:35:12;;;;;;;2.72;1.40;;;;;;;16.71;32.55;99902.00;4176473;28;20032;-52
2021/05/05 04:37:13;;;;;;;3.78;2.10;;;;;;;16.71;32.58;99902.00;4175206;28;20589;-48
2021/05/05 04:39:13;;;;;;;3.33;1.85;;;;;;;16.62;32.51;99884.38;4177529;28;20033;-48
2021/05/05 04:41:14;;;;;;;4.43;1.85;;;;;;;16.70;32.42;99897.59;4175953;28;20473;-51
2021/05/05 04:43:14;;;;;;;4.72;1.50;;;;;;;16.77;32.46;99913.03;4188342;28;20114;-48
2021/05/05 04:45:15;;;;;;;3.10;1.70;;;;;;;16.70;32.49;99929.94;4173655;28;20368;-47
2021/05/05 04:47:15;;;;;;;4.35;1.65;;;;;;;16.64;32.63;99923.56;4173944;28;20094;-49
2021/05/05 04:49:16;;;;;;;3.25;1.83;;;;;;;16.82;32.33;99932.31;4173468;28;20045;-48
2021/05/05 04:51:16;;;;;;;3.30;1.60;;;;;;;16.73;32.44;99924.66;4177651;28;20037;-51
2021/05/05 04:53:16;;;;;;;2.78;1.80;;;;;;;16.73;32.47;99926.59;4181950;28;20043;-49
2021/05/05 04:55:18;;;;;;;4.05;1.92;;;;;;;16.66;32.71;99917.78;4176785;28;20033;-47
2021/05/05 04:57:19;;;;;;;3.92;1.63;;;;;;;16.49;32.64;99912.63;4176630;28;20029;-50
2021/05/05 04:59:19;;;;;;;4.50;1.90;;;;;;;16.65;32.77;99930.78;4178297;28;20094;-48
2021/05/05 05:01:19;;;;;;;2.53;1.70;;;;;;;16.61;32.46;99932.44;4174410;28;20332;-54
2021/05/05 05:03:20;;;;;;;3.10;1.75;;;;;;;16.64;32.78;99939.34;4176820;28;20030;-48
2021/05/05 05:05:22;;;;;;;2.97;1.40;;;;;;;16.67;32.62;99953.44;4174940;28;20502;-49
2021/05/05 05:07:23;;;;;;;3.05;1.70;;;;;;;16.70;32.55;99969.44;4175132;28;20033;-49
2021/05/05 05:09:23;;;;;;;3.10;1.73;;;;;;;16.64;32.54;99966.97;4176949;28;20064;-51
2021/05/05 05:11:23;;;;;;;5.20;2.00;;;;;;;16.63;32.56;99974.41;4169166;28;20061;-53
2021/05/05 05:13:24;;;;;;;3.35;1.73;;;;;;;16.55;32.86;99972.25;4167682;28;20124;-49
2021/05/05 05:15:24;;;;;;;3.35;1.83;;;;;;;16.61;32.55;99971.13;4174899;28;20106;-49
2021/05/05 05:17:25;;;;;;;2.60;1.63;;;;;;;16.54;32.82;99962.31;4170028;28;20023;-47
2021/05/05 05:19:25;;;;;;;3.42;1.52;;;;;;;16.55;32.68;99962.03;4172118;28;20507;-50
2021/05/05 05:21:26;;;;;;;4.53;1.70;;;;;;;16.54;32.78;99945.72;4157536;28;20447;-49
2021/05/05 05:23:26;;;;;;;3.75;1.38;;;;;;;16.58;32.56;99949.59;4173515;28;20064;-53
2021/05/05 05:25:27;;;;;;;3.72;1.85;;;;;;;16.51;32.80;99958.19;4174890;28;20037;-48
2021/05/05 05:27:28;;;;;;;3.33;1.70;;;;;;;16.58;32.80;99957.88;4183578;28;20067;-51
2021/05/05 05:29:28;;;;;;;2.63;1.30;;;;;;;16.55;32.85;99963.97;4175786;28;20064;-48
2021/05/05 05:31:29;;;;;;;2.58;1.55;;;;;;;16.50;32.80;99966.75;4174474;28;20098;-48
2021/05/05 05:33:29;;;;;;;3.45;2.00;;;;;;;16.50;32.73;99970.34;4170595;28;20517;-46
2021/05/05 05:35:30;;;;;;;3.20;1.40;;;;;;;16.57;32.68;99975.53;4170262;28;20040;-49
2021/05/05 05:37:30;;;;;;;4.22;1.50;;;;;;;16.54;32.72;99970.59;4168872;28;20056;-48
2021/05/05 05:39:30;;;;;;;3.50;1.55;;;;;;;16.55;32.40;99967.53;4171866;28;20037;-46
2021/05/05 05:41:31;;;;;;;2.80;1.40;;;;;;;16.55;32.79;99986.06;4175842;28;20033;-49
2021/05/05 05:43:31;;;;;;;3.38;1.30;;;;;;;16.52;32.69;99992.16;4171253;28;20055;-47
2021/05/05 05:45:31;;;;;;;4.60;1.75;;;;;;;16.48;32.85;99991.06;4174095;28;20037;-47
2021/05/05 05:47:32;;;;;;;1.77;1.30;;;;;;;16.44;32.76;99988.06;4173293;28;20036;-52
2021/05/05 05:49:32;;;;;;;4.80;1.95;;;;;;;16.53;32.79;99993.81;4173368;28;20032;-50
2021/05/05 05:51:33;;;;;;;4.32;1.67;;;;;;;16.48;32.91;99993.81;4180301;28;20502;-49
2021/05/05 05:53:34;;;;;;;2.47;1.50;;;;;;;16.46;32.89;100001.56;4171598;28;20040;-50
2021/05/05 05:55:35;;;;;;;2.88;1.35;;;;;;;16.53;32.75;100004.88;4178802;28;20107;-46
2021/05/05 05:57:37;;;;;;;4.50;1.50;;;;;;;16.53;32.80;100013.16;4175835;28;20052;-48
2021/05/05 05:59:37;;;;;;;2.80;1.58;;;;;;;16.49;32.85;100012.88;4173861;28;20061;-49
2021/05/05 06:01:38;;;;;;;2.10;1.63;;;;;;;16.48;32.74;100002.13;4166062;28;20064;-52
2021/05/05 06:03:38;;;;;;;3.70;1.30;;;;;;;16.47;32.82;100004.06;4172098;28;20029;-48
2021/05/05 06:05:38;;;;;;;2.25;1.50;;;;;;;16.54;32.60;100003.75;4175781;28;20029;-50
2021/05/05 06:07:39;;;;;;;2.88;1.73;;;;;;;16.48;32.78;99999.34;4166458;28;20029;-52
2021/05/05 06:09:40;;;;;;;3.30;1.80;;;;;;;16.37;32.95;99993.91;4174362;28;20037;-52
2021/05/05 06:11:40;;;;;;;2.95;1.65;;;;;;;16.44;33.07;99998.28;4178663;28;20101;-47
2021/05/05 06:13:41;;;;;;;1.92;1.50;;;;;;;16.49;32.88;99995.50;4152308;28;20045;-46
2021/05/05 06:15:41;;;;;;;4.65;1.90;;;;;;;16.47;32.95;100003.25;4173573;28;20041;-48
2021/05/05 06:17:42;;;;;;;3.25;1.30;;;;;;;16.49;32.67;100001.00;4178856;28;20029;-50
2021/05/05 06:19:42;;;;;;;3.65;1.85;;;;;;;16.41;33.04;99993.31;4173930;28;20481;-49
2021/05/05 06:21:43;;;;;;;3.17;1.77;;;;;;;16.42;33.05;100001.31;4175502;28;20037;-49
2021/05/05 06:23:43;;;;;;;3.78;1.95;;;;;;;16.40;33.02;100000.75;4173834;28;20108;-50
2021/05/05 06:25:43;;;;;;;2.70;1.75;;;;;;;16.49;32.88;99999.06;4168704;28;20083;-48
2021/05/05 06:27:44;;;;;;;3.45;1.80;;;;;;;16.48;33.17;100002.97;4174946;28;20037;-48
2021/05/05 06:29:45;;;;;;;5.15;2.13;;;;;;;16.54;32.82;100007.34;4172299;28;20048;-48
2021/05/05 06:31:45;;;;;;;3.05;2.08;;;;;;;16.50;33.02;100019.25;4176825;28;20090;-48
2021/05/05 06:33:46;;;;;;;2.58;1.13;;;;;;;16.48;32.92;100014.00;4177738;28;20037;-46
2021/05/05 06:35:46;;;;;;;4.45;1.95;;;;;;;16.52;32.94;100011.50;4178875;28;20730;-47
2021/05/05 06:37:47;;;;;;;2.42;1.58;;;;;;;16.54;33.12;100023.09;4175134;28;20049;-50
2021/05/05 06:39:47;;;;;;;1.52;1.08;;;;;;;16.46;33.08;100018.97;4172855;28;20538;-50
2021/05/05 06:41:48;;;;;;;9.43;1.63;;;;;;;16.50;33.54;100035.81;4173801;28;20041;-47
2021/05/05 06:43:48;;;;;;;3.95;1.77;;;;;;;16.61;33.44;100053.19;4177525;28;20029;-46
2021/05/05 06:45:49;;;;;;;10.00;1.88;;;;;;;16.58;33.81;100049.03;4172002;28;20040;-49
2021/05/05 06:47:49;;;;;;;6.55;1.38;;;;;;;16.66;33.53;100059.53;4171386;28;20037;-45
2021/05/05 06:49:49;;;;;;;6.30;1.08;;;;;;;16.80;33.15;100061.69;4177821;28;20375;-46
2021/05/05 06:51:53;;;;;;;5.03;1.20;;;;;;;16.73;33.05;100050.94;4173941;28;20036;-48
2021/05/05 06:53:54;;;;;;;7.82;1.25;;;;;;;16.72;33.13;100055.63;4176307;28;20052;-49
2021/05/05 06:55:54;;;;;;;4.93;1.60;;;;;;;16.69;32.94;100058.13;4174854;28;20025;-50
2021/05/05 06:57:55;;;;;;;6.03;1.33;;;;;;;16.82;32.83;100053.91;4175572;28;20115;-46
2021/05/05 06:59:55;;;;;;;5.38;0.93;;;;;;;16.74;33.04;100061.72;4188267;28;20028;-49
2021/05/05 07:01:56;;;;;;;6.65;1.50;;;;;;;16.78;32.88;100063.91;4174748;28;20037;-46
2021/05/05 07:03:56;;;;;;;5.38;1.60;;;;;;;16.81;32.87;100057.81;4169876;28;20033;-49
2021/05/05 07:05:58;;;;;;;4.80;1.25;;;;;;;16.82;32.89;100076.03;4175944;28;20759;-47
2021/05/05 07:07:59;;;;;;;7.97;2.03;;;;;;;16.75;32.90;100070.81;4174117;28;20032;-48
2021/05/05 07:09:59;;;;;;;4.40;1.50;;;;;;;16.87;32.74;100096.19;4162571;28;20029;-46
2021/05/05 07:12:00;;;;;;;4.97;1.63;;;;;;;16.89;32.72;100091.19;4169141;28;20040;-48
2021/05/05 07:14:01;;;;;;;4.15;1.35;;;;;;;16.88;32.77;100085.94;4175072;28;20415;-46
2021/05/05 07:16:02;;;;;;;5.15;2.25;;;;;;;16.92;32.77;100087.03;4178724;28;20029;-47
2021/05/05 07:18:03;;;;;;;3.92;1.38;;;;;;;16.89;32.71;100091.19;4172649;28;20141;-48
2021/05/05 07:20:04;;;;;;;3.63;1.58;;;;;;;16.96;32.64;100093.66;4172772;28;20774;-49
2021/05/05 07:22:05;;;;;;;3.80;1.55;;;;;;;17.00;32.54;100091.97;4176295;28;20037;-49
2021/05/05 07:24:06;;;;;;;3.45;1.02;;;;;;;17.02;32.45;100077.88;4173510;28;20416;-48
2021/05/05 07:26:06;;;;;;;3.13;1.20;;;;;;;16.99;32.67;100089.50;4186466;28;20048;-47
2021/05/05 07:28:07;;;;;;;3.63;1.40;;;;;;;16.99;32.58;100083.97;4185054;28;20555;-47
2021/05/05 07:30:08;;;;;;;5.43;1.13;;;;;;;17.08;32.64;100085.00;4177129;28;20075;-50
2021/05/05 07:32:09;;;;;;;6.90;1.58;;;;;;;16.95;32.48;100060.78;4164417;28;20049;-47
2021/05/05 07:34:10;;;;;;;6.20;1.80;;;;;;;17.04;32.91;100090.31;4176724;28;20040;-49
2021/05/05 07:36:15;;;;;;;3.92;1.27;;;;;;;17.08;32.46;100096.91;4170884;28;20040;-49
2021/05/05 07:45:15;;;;;;;4.18;1.20;;;;;;;17.14;32.57;100106.00;4160498;28;20107;-50
2021/05/05 07:47:37;;;;;;;5.53;1.65;;;;;;;17.10;32.50;100099.38;4182624;28;20028;-49
2021/05/05 07:49:48;;;;;;;2.63;1.27;;;;;;;17.18;32.18;100101.56;4173564;28;20041;-49
2021/05/05 07:51:49;;;;;;;2.75;1.13;;;;;;;17.08;32.49;100080.31;4175661;28;20060;-54
2021/05/05 07:53:50;;;;;;;3.90;1.30;;;;;;;17.14;32.70;100105.19;4182353;28;20036;-50
2021/05/05 07:55:51;;;;;;;3.17;1.40;;;;;;;17.18;32.49;100098.78;4180736;28;20028;-52
2021/05/05 07:57:51;;;;;;;2.42;1.17;;;;;;;17.18;32.34;100107.09;4172532;28;20037;-50
2021/05/05 07:59:52;;;;;;;2.58;1.33;;;;;;;17.23;32.29;100109.81;4167456;28;20037;-48
2021/05/05 08:01:52;;;;;;;6.30;1.27;;;;;;;17.17;32.48;100113.72;4175768;28;20531;-50
2021/05/05 08:03:52;;;;;;;3.38;1.55;;;;;;;17.18;32.35;100131.97;4183255;28;20033;-51
2021/05/05 08:05:53;;;;;;;4.45;1.10;;;;;;;17.17;32.62;100130.31;4180935;28;20028;-47
2021/05/05 08:07:54;;;;;;;4.47;1.33;;;;;;;17.18;32.66;100144.97;4175983;28;20083;-46
2021/05/05 08:09:54;;;;;;;3.67;1.73;;;;;;;17.15;32.74;100149.13;4177172;28;20110;-49
2021/05/05 08:11:55;;;;;;;5.80;1.52;;;;;;;17.14;32.71;100138.38;4171915;28;20041;-49
2021/05/05 08:13:55;;;;;;;4.97;1.23;;;;;;;17.20;32.63;100149.09;4177740;28;20056;-46
2021/05/05 08:15:56;;;;;;;5.13;1.98;;;;;;;17.19;32.81;100152.16;4174043;28;20456;-47
2021/05/05 08:17:56;;;;;;;4.00;1.25;;;;;;;17.20;32.78;100143.56;4173535;28;20048;-47
2021/05/05 08:19:57;;;;;;;4.13;1.52;;;;;;;17.17;32.93;100162.69;4178279;28;20090;-49
2021/05/05 08:21:57;;;;;;;9.32;1.63;;;;;;;17.04;33.12;100159.41;4177400;28;20087;-48
2021/05/05 08:23:58;;;;;;;8.05;1.95;;;;;;;17.20;32.92;100167.66;4175989;28;20040;-48
2021/05/05 08:25:59;;;;;;;5.07;1.52;;;;;;;17.25;32.70;100168.44;4178017;28;20029;-47
2021/05/05 08:28:00;;;;;;;6.55;2.22;;;;;;;17.17;32.98;100174.56;4177126;28;20118;-48
2021/05/05 08:30:02;;;;;;;8.82;2.22;;;;;;;17.21;32.88;100177.56;4177176;28;20108;-49
2021/05/05 08:32:03;;;;;;;16.88;2.60;;;;;;;17.17;32.89;100182.03;4188527;28;20040;-51
2021/05/05 08:34:03;;;;;;;16.80;3.15;;;;;;;17.21;32.87;100186.72;4176194;28;20136;-48
2021/05/05 08:36:05;;;;;;;13.93;2.72;;;;;;;17.23;32.86;100180.91;4177697;28;20087;-46
2021/05/05 08:38:06;;;;;;;11.27;2.80;;;;;;;17.17;32.95;100176.50;4175541;28;20083;-49
2021/05/05 08:40:10;;;;;;;15.35;3.38;;;;;;;17.16;33.28;100196.97;4175449;28;20381;-48
2021/05/05 08:42:12;;;;;;;8.98;2.85;;;;;;;17.24;32.89;100183.38;4175443;28;20387;-49
2021/05/05 08:44:14;;;;;;;13.68;3.03;;;;;;;17.27;32.78;100187.50;4174306;28;20053;-51
2021/05/05 08:46:17;;;;;;;17.42;2.47;;;;;;;17.29;33.00;100179.78;4170842;28;20033;-47
2021/05/05 08:48:19;;;;;;;10.52;3.05;;;;;;;17.18;32.93;100186.44;4173197;28;20029;-49
2021/05/05 08:50:22;;;;;;;19.00;3.20;;;;;;;17.24;33.32;100201.91;4173531;28;20033;-47
2021/05/05 08:52:22;;;;;;;19.08;2.92;;;;;;;17.34;33.11;100203.81;4171620;28;20029;-50
2021/05/05 08:54:22;;;;;;;12.70;2.90;;;;;;;17.39;32.96;100212.88;4174756;28;20079;-47
2021/05/05 08:56:23;;;;;;;13.52;2.70;;;;;;;17.33;32.88;100208.50;4168511;28;20403;-48
2021/05/05 08:58:23;;;;;;;8.75;2.80;;;;;;;17.39;32.86;100204.59;4172611;28;20076;-47
2021/05/05 09:00:32;;;;;;;12.20;2.78;;;;;;;17.41;32.65;100218.13;4176585;28;20087;-49
2021/05/05 09:02:33;;;;;;;17.50;3.10;;;;;;;17.37;32.57;100228.13;4176482;28;20044;-47
2021/05/05 09:04:33;;;;;;;5.28;2.20;;;;;;;17.22;33.24;100224.31;4178298;28;20048;-47
2021/05/05 09:06:47;;;;;;;10.35;2.95;;;;;;;17.19;33.45;100240.66;4178348;28;20507;-52
2021/05/05 09:08:48;;;;;;;6.20;2.33;;;;;;;17.14;33.44;100243.44;4175186;28;20037;-49
2021/05/05 09:11:01;;;;;;;7.90;2.60;;;;;;;17.15;33.23;100243.16;4177449;28;20095;-50
2021/05/05 09:13:01;;;;;;;10.88;2.60;;;;;;;17.13;33.28;100258.38;4174416;28;20044;-47
2021/05/05 09:15:08;;;;;;;8.57;2.90;;;;;;;17.14;33.26;100263.63;4174348;28;20025;-48
2021/05/05 09:17:22;;;;;;;9.10;2.33;;;;;;;17.26;33.03;100264.13;4185185;28;20024;-50
2021/05/05 09:19:22;;;;;;;8.80;2.65;;;;;;;17.26;32.83;100261.38;4175699;28;20037;-48
2021/05/05 09:21:28;;;;;;;6.68;2.63;;;;;;;17.29;33.02;100262.75;4180599;28;20036;-52
2021/05/05 09:23:28;;;;;;;9.18;2.50;;;;;;;17.09;32.82;100234.03;4174687;28;20033;-48
2021/05/05 09:25:29;;;;;;;10.18;2.38;;;;;;;17.33;32.76;100263.00;4176404;28;20215;-46
2021/05/05 09:27:33;;;;;;;11.63;2.63;;;;;;;17.49;32.75;100252.69;4173605;28;20563;-54
2021/05/05 09:29:40;;;;;;;15.00;2.92;;;;;;;17.57;32.70;100257.69;4172653;28;20041;-55
2021/05/05 09:31:42;;;;;;;12.93;3.03;;;;;;;17.64;32.40;100263.72;4175157;28;20037;-51
2021/05/05 09:33:55;;;;;;;9.48;2.95;;;;;;;17.61;32.55;100280.88;4174423;28;20021;-54